Terminal Aerodrome Forecast
Issued by NWS

Home | Current Version | Previous Version | Text Only | Print | Product List | Glossary On
Versions: 1 2 3 4 5 6 7 8 9 10 11 12 13 14 15 16 17 18
000
FTUS46 KMTR 291700
TAFMRY
TAF
KMRY 291738Z 2918/3018 29004KT P6SM FEW007 SCT200
     FM292000 29009KT P6SM SCT200
     FM300200 24007KT P6SM BKN008
     FM300400 24005KT P6SM OVC005=

USA.gov is the U.S. government's official web portal to all federal, state and local government web resources and services.